CheckWX is a tool to help pilots better visualize weather data.  It is not intended as a substitute for an official pre-flight weather briefing.

16:04:19 UTC

EGLL TAF
London Heathrow Airport
London, United Kingdom
TAF EGLL 071102Z 0712/0818 26012KT 9999 SCT030 BECMG 0715/0718 20010KT BECMG 0721/0724 22020G30KT TEMPO 0722/0801 BKN012 BECMG 0801/0804 4000 RA BKN010 PROB30 TEMPO 0802/0804 +RA BECMG 0804/0807 25015G25KT 9999 NSW FEW025 PROB30 TEMPO 0812/0818 25020G35KT 4000 +SHRA BKN014

Dec-7@
12:00 UTC

Dec-7 @ 12:00 UTC

Dec-7@
15:00 UTC

Dec-7 @ 15:00 UTC

TAF EGLL 071102Z 0712/0818 26012KT 9999 SCT030

Expired

Wind
  • 260° at 12 KTS
Cloud Levels
  • Scattered at 3,000' AGL

Dec-7@
15:00 UTC

Dec-7 @ 15:00 UTC

Dec-7@
21:00 UTC

Dec-7 @ 21:00 UTC

BECMG 0715/0718 20010KT

Becoming

Becoming Conditions expected by Sat, Dec 7, 2019 @ 18:00 UTC

Wind
  • 200° at 10 KTS
Cloud Levels
  • Scattered at 3,000' AGL

Dec-7@
21:00 UTC

Dec-7 @ 21:00 UTC

Dec-8@
01:00 UTC

Dec-8 @ 01:00 UTC

BECMG 0721/0724 22020G30KT

Becoming

Becoming Conditions expected by Sun, Dec 8, 2019 @ 00:00 UTC

Wind
  • 220° at 20 KTS
  • {Gusting to 30 KTS
Cloud Levels
  • Scattered at 3,000' AGL

Dec-7@
22:00 UTC

Dec-7 @ 22:00 UTC

Dec-8@
01:00 UTC

Dec-8 @ 01:00 UTC

TEMPO 0722/0801 BKN012

Temporary

Temporary Changes expected for less than half the time period

Cloud Levels
  • Broken at 1,200' AGL

Dec-8@
01:00 UTC

Dec-8 @ 01:00 UTC

Dec-8@
04:00 UTC

Dec-8 @ 04:00 UTC

BECMG 0801/0804 4000 RA BKN010

Becoming

Becoming Conditions expected by Sun, Dec 8, 2019 @ 04:00 UTC

Wind
  • 220° at 20 KTS
  • {Gusting to 30 KTS
Conditions
Rain
Cloud Levels
  • Broken at 1,000' AGL

Dec-8@
02:00 UTC

Dec-8 @ 02:00 UTC

Dec-8@
04:00 UTC

Dec-8 @ 04:00 UTC

PROB30 TEMPO 0802/0804 +RA

Temporary - 30% Likelihood

Temporary - 30% Likelihood during this time.

Conditions
Heavy Rain

Dec-8@
04:00 UTC

Dec-8 @ 04:00 UTC

Dec-8@
18:00 UTC

Dec-8 @ 18:00 UTC

BECMG 0804/0807 25015G25KT 9999 NSW FEW025

Becoming

Becoming Conditions expected by Sun, Dec 8, 2019 @ 07:00 UTC

Wind
  • 250° at 15 KTS
  • {Gusting to 25 KTS
Conditions
No significant weather
Cloud Levels
  • Few at 2,500' AGL

Dec-8@
12:00 UTC

Dec-8 @ 12:00 UTC

Dec-8@
18:00 UTC

Dec-8 @ 18:00 UTC

PROB30 TEMPO 0812/0818 25020G35KT 4000 +SHRA BKN014

Temporary - 30% Likelihood

Temporary - 30% Likelihood during this time.

Wind
  • 250° at 20 KTS
  • {Gusting to 35 KTS
Conditions
Heavy Rain
Cloud Levels
  • Broken at 1,400' AGL